sensor_id;sensor_type;location;lat;lon;timestamp;P1;durP1;ratioP1;P2;durP2;ratioP2
34521;SDS011;25561;48.888;8.736;2023-04-28T05:32:45;4.50;;;2.40;;
34521;SDS011;25561;48.888;8.736;2023-04-28T05:35:47;5.60;;;2.38;;
34521;SDS011;25561;48.888;8.736;2023-04-28T05:38:49;5.38;;;2.33;;
34521;SDS011;25561;48.888;8.736;2023-04-28T05:41:51;9.68;;;4.75;;
34521;SDS011;25561;48.888;8.736;2023-04-28T05:44:55;9.45;;;4.85;;
34521;SDS011;25561;48.888;8.736;2023-04-28T05:47:56;12.55;;;6.50;;
34521;SDS011;25561;48.888;8.736;2023-04-28T05:50:58;19.75;;;5.75;;
34521;SDS011;25561;48.888;8.736;2023-04-28T05:54:00;8.80;;;5.30;;
34521;SDS011;25561;48.888;8.736;2023-04-28T05:57:03;22.13;;;6.85;;
34521;SDS011;25561;48.888;8.736;2023-04-28T06:00:05;12.38;;;6.05;;
34521;SDS011;25561;48.888;8.736;2023-04-28T06:03:08;12.75;;;6.43;;
34521;SDS011;25561;48.888;8.736;2023-04-28T06:06:11;8.23;;;5.10;;
34521;SDS011;25561;48.888;8.736;2023-04-28T06:09:13;16.35;;;5.95;;
34521;SDS011;25561;48.888;8.736;2023-04-28T06:12:16;13.00;;;6.65;;
34521;SDS011;25561;48.888;8.736;2023-04-28T06:49:06;6.97;;;2.50;;
34521;SDS011;25561;48.888;8.736;2023-04-28T06:52:08;3.50;;;2.47;;
34521;SDS011;25561;48.888;8.736;2023-04-28T06:55:13;5.68;;;2.33;;
34521;SDS011;25561;48.888;8.736;2023-04-28T06:58:16;4.82;;;2.88;;
34521;SDS011;25561;48.888;8.736;2023-04-28T07:01:18;6.68;;;2.67;;
34521;SDS011;25561;48.888;8.736;2023-04-28T07:04:20;4.55;;;2.70;;
34521;SDS011;25561;48.888;8.736;2023-04-28T07:07:23;3.50;;;2.60;;
34521;SDS011;25561;48.888;8.736;2023-04-28T07:10:25;4.65;;;2.40;;
34521;SDS011;25561;48.888;8.736;2023-04-28T07:13:27;4.20;;;2.80;;
34521;SDS011;25561;48.888;8.736;2023-04-28T07:16:29;4.90;;;2.60;;
34521;SDS011;25561;48.888;8.736;2023-04-28T07:19:34;4.28;;;3.25;;
34521;SDS011;25561;48.888;8.736;2023-04-28T07:22:36;4.15;;;2.75;;
34521;SDS011;25561;48.888;8.736;2023-04-28T07:25:46;12.52;;;6.97;;
34521;SDS011;25561;48.888;8.736;2023-04-28T07:32:01;16.67;;;8.85;;
34521;SDS011;25561;48.888;8.736;2023-04-28T07:35:08;16.60;;;10.45;;
34521;SDS011;25561;48.888;8.736;2023-04-28T07:38:09;22.42;;;11.43;;
34521;SDS011;25561;48.888;8.736;2023-04-28T07:41:12;34.58;;;13.13;;
34521;SDS011;25561;48.888;8.736;2023-04-28T07:44:13;29.98;;;13.40;;
34521;SDS011;25561;48.888;8.736;2023-04-28T07:47:16;24.58;;;12.80;;
34521;SDS011;25561;48.888;8.736;2023-04-28T07:50:18;25.27;;;13.55;;
34521;SDS011;25561;48.888;8.736;2023-04-28T07:53:20;24.13;;;13.43;;
34521;SDS011;25561;48.888;8.736;2023-04-28T07:56:23;30.27;;;13.93;;
34521;SDS011;25561;48.888;8.736;2023-04-28T07:59:26;25.17;;;13.77;;
34521;SDS011;25561;48.888;8.736;2023-04-28T08:02:28;31.25;;;14.57;;
34521;SDS011;25561;48.888;8.736;2023-04-28T08:05:30;18.65;;;13.02;;
34521;SDS011;25561;48.888;8.736;2023-04-28T08:08:32;17.90;;;11.02;;
34521;SDS011;25561;48.888;8.736;2023-04-28T08:11:35;20.10;;;10.55;;
34521;SDS011;25561;48.888;8.736;2023-04-28T08:14:37;19.20;;;10.98;;
34521;SDS011;25561;48.888;8.736;2023-04-28T08:17:39;12.38;;;9.18;;
34521;SDS011;25561;48.888;8.736;2023-04-28T08:20:41;9.68;;;7.70;;
34521;SDS011;25561;48.888;8.736;2023-04-28T08:23:46;12.77;;;8.83;;
34521;SDS011;25561;48.888;8.736;2023-04-28T08:26:48;15.57;;;11.75;;
34521;SDS011;25561;48.888;8.736;2023-04-28T08:29:51;18.88;;;10.98;;
34521;SDS011;25561;48.888;8.736;2023-04-28T08:32:54;19.77;;;11.90;;
34521;SDS011;25561;48.888;8.736;2023-04-28T08:35:57;11.85;;;7.00;;
34521;SDS011;25561;48.888;8.736;2023-04-28T08:39:00;11.82;;;5.90;;
34521;SDS011;25561;48.888;8.736;2023-04-28T08:42:04;14.27;;;7.45;;
34521;SDS011;25561;48.888;8.736;2023-04-28T08:45:07;9.13;;;5.88;;
34521;SDS011;25561;48.888;8.736;2023-04-28T08:48:18;13.23;;;5.28;;
34521;SDS011;25561;48.888;8.736;2023-04-28T08:51:25;9.40;;;4.90;;
34521;SDS011;25561;48.888;8.736;2023-04-28T08:54:34;8.13;;;4.40;;
34521;SDS011;25561;48.888;8.736;2023-04-28T08:57:42;8.35;;;3.95;;
34521;SDS011;25561;48.888;8.736;2023-04-28T09:00:52;9.40;;;4.15;;
34521;SDS011;25561;48.888;8.736;2023-04-28T09:03:55;10.50;;;3.90;;
34521;SDS011;25561;48.888;8.736;2023-04-28T09:06:57;8.40;;;5.28;;
34521;SDS011;25561;48.888;8.736;2023-04-28T09:10:19;5.32;;;4.05;;
34521;SDS011;25561;48.888;8.736;2023-04-28T09:13:25;3.42;;;2.83;;
34521;SDS011;25561;48.888;8.736;2023-04-28T09:16:38;9.68;;;6.60;;
34521;SDS011;25561;48.888;8.736;2023-04-28T09:19:43;7.22;;;4.88;;
34521;SDS011;25561;48.888;8.736;2023-04-28T09:22:44;9.45;;;5.40;;
34521;SDS011;25561;48.888;8.736;2023-04-28T09:25:59;8.82;;;6.47;;
34521;SDS011;25561;48.888;8.736;2023-04-28T09:29:12;9.95;;;5.32;;
34521;SDS011;25561;48.888;8.736;2023-04-28T09:32:15;13.13;;;6.32;;
34521;SDS011;25561;48.888;8.736;2023-04-28T09:35:37;9.03;;;6.50;;
34521;SDS011;25561;48.888;8.736;2023-04-28T09:38:44;9.55;;;6.28;;
34521;SDS011;25561;48.888;8.736;2023-04-28T09:41:48;9.23;;;5.35;;
34521;SDS011;25561;48.888;8.736;2023-04-28T09:45:03;8.35;;;6.32;;
34521;SDS011;25561;48.888;8.736;2023-04-28T09:48:08;7.10;;;5.07;;
34521;SDS011;25561;48.888;8.736;2023-04-28T09:51:19;5.18;;;4.50;;
34521;SDS011;25561;48.888;8.736;2023-04-28T09:54:32;5.25;;;4.07;;
34521;SDS011;25561;48.888;8.736;2023-04-28T09:57:37;7.95;;;4.38;;
34521;SDS011;25561;48.888;8.736;2023-04-28T10:00:41;4.53;;;3.15;;
34521;SDS011;25561;48.888;8.736;2023-04-28T10:06:50;1.77;;;1.30;;
34521;SDS011;25561;48.888;8.736;2023-04-28T10:09:57;3.10;;;1.05;;
34521;SDS011;25561;48.888;8.736;2023-04-28T10:13:04;3.40;;;1.23;;
34521;SDS011;25561;48.888;8.736;2023-04-28T10:16:10;3.15;;;1.60;;
34521;SDS011;25561;48.888;8.736;2023-04-28T10:19:16;2.00;;;0.98;;
34521;SDS011;25561;48.888;8.736;2023-04-28T10:25:42;2.00;;;1.00;;
34521;SDS011;25561;48.888;8.736;2023-04-28T10:28:52;1.20;;;0.80;;
34521;SDS011;25561;48.888;8.736;2023-04-28T10:38:28;1.05;;;0.70;;
34521;SDS011;25561;48.888;8.736;2023-04-28T10:41:31;1.20;;;0.88;;
34521;SDS011;25561;48.888;8.736;2023-04-28T10:54:13;0.98;;;0.60;;
34521;SDS011;25561;48.888;8.736;2023-04-28T10:57:16;1.85;;;0.90;;
34521;SDS011;25561;48.888;8.736;2023-04-28T11:00:28;1.80;;;1.00;;
34521;SDS011;25561;48.888;8.736;2023-04-28T11:03:44;1.45;;;0.90;;
34521;SDS011;25561;48.888;8.736;2023-04-28T11:07:08;0.82;;;0.80;;
34521;SDS011;25561;48.888;8.736;2023-04-28T11:10:11;1.10;;;0.90;;
34521;SDS011;25561;48.888;8.736;2023-04-28T11:13:28;1.58;;;0.75;;
34521;SDS011;25561;48.888;8.736;2023-04-28T11:16:34;0.88;;;0.88;;
34521;SDS011;25561;48.888;8.736;2023-04-28T11:19:48;1.00;;;0.90;;
34521;SDS011;25561;48.888;8.736;2023-04-28T11:22:51;1.20;;;1.00;;
34521;SDS011;25561;48.888;8.736;2023-04-28T11:25:53;2.22;;;1.13;;
34521;SDS011;25561;48.888;8.736;2023-04-28T11:28:56;4.30;;;3.03;;
34521;SDS011;25561;48.888;8.736;2023-04-28T11:31:58;1.48;;;0.98;;
34521;SDS011;25561;48.888;8.736;2023-04-28T11:35:00;1.80;;;0.80;;
34521;SDS011;25561;48.888;8.736;2023-04-28T11:38:04;1.90;;;0.95;;
34521;SDS011;25561;48.888;8.736;2023-04-28T11:41:06;4.00;;;1.05;;
34521;SDS011;25561;48.888;8.736;2023-04-28T11:44:08;1.73;;;0.90;;
34521;SDS011;25561;48.888;8.736;2023-04-28T11:47:28;3.38;;;0.90;;
34521;SDS011;25561;48.888;8.736;2023-04-28T11:50:36;4.47;;;0.80;;
34521;SDS011;25561;48.888;8.736;2023-04-28T11:53:42;0.95;;;0.80;;
34521;SDS011;25561;48.888;8.736;2023-04-28T11:56:45;1.13;;;0.90;;
34521;SDS011;25561;48.888;8.736;2023-04-28T11:59:47;2.30;;;0.80;;
34521;SDS011;25561;48.888;8.736;2023-04-28T12:02:50;0.90;;;0.85;;
34521;SDS011;25561;48.888;8.736;2023-04-28T12:05:52;0.80;;;0.80;;
34521;SDS011;25561;48.888;8.736;2023-04-28T12:08:54;4.15;;;1.08;;
34521;SDS011;25561;48.888;8.736;2023-04-28T12:11:57;0.98;;;0.80;;
34521;SDS011;25561;48.888;8.736;2023-04-28T12:15:01;1.20;;;1.00;;
34521;SDS011;25561;48.888;8.736;2023-04-28T12:18:10;1.00;;;0.80;;
34521;SDS011;25561;48.888;8.736;2023-04-28T12:21:19;1.10;;;1.00;;
34521;SDS011;25561;48.888;8.736;2023-04-28T12:24:22;1.10;;;0.90;;
34521;SDS011;25561;48.888;8.736;2023-04-28T12:27:26;3.33;;;0.97;;
34521;SDS011;25561;48.888;8.736;2023-04-28T12:30:30;2.38;;;0.93;;
34521;SDS011;25561;48.888;8.736;2023-04-28T12:33:34;3.50;;;0.85;;
34521;SDS011;25561;48.888;8.736;2023-04-28T12:36:39;3.00;;;1.33;;
34521;SDS011;25561;48.888;8.736;2023-04-28T12:39:41;2.30;;;0.70;;
34521;SDS011;25561;48.888;8.736;2023-04-28T12:42:43;2.20;;;1.20;;
34521;SDS011;25561;48.888;8.736;2023-04-28T12:45:45;2.90;;;1.27;;
34521;SDS011;25561;48.888;8.736;2023-04-28T12:48:48;1.65;;;1.05;;
34521;SDS011;25561;48.888;8.736;2023-04-28T12:51:50;4.05;;;0.82;;
34521;SDS011;25561;48.888;8.736;2023-04-28T12:54:51;1.13;;;0.82;;
34521;SDS011;25561;48.888;8.736;2023-04-28T12:57:53;0.90;;;0.70;;
34521;SDS011;25561;48.888;8.736;2023-04-28T13:00:55;2.08;;;0.80;;
34521;SDS011;25561;48.888;8.736;2023-04-28T13:03:58;3.13;;;0.93;;
34521;SDS011;25561;48.888;8.736;2023-04-28T13:07:00;1.33;;;0.80;;
34521;SDS011;25561;48.888;8.736;2023-04-28T13:10:02;2.47;;;0.98;;
34521;SDS011;25561;48.888;8.736;2023-04-28T13:13:04;1.10;;;0.73;;
34521;SDS011;25561;48.888;8.736;2023-04-28T13:16:06;1.17;;;0.68;;
34521;SDS011;25561;48.888;8.736;2023-04-28T13:19:08;1.95;;;0.60;;
34521;SDS011;25561;48.888;8.736;2023-04-28T13:22:13;1.92;;;1.25;;
34521;SDS011;25561;48.888;8.736;2023-04-28T13:25:15;1.48;;;0.93;;
34521;SDS011;25561;48.888;8.736;2023-04-28T13:28:17;1.27;;;0.88;;
34521;SDS011;25561;48.888;8.736;2023-04-28T13:31:19;1.42;;;0.60;;
34521;SDS011;25561;48.888;8.736;2023-04-28T13:34:21;1.15;;;0.90;;
34521;SDS011;25561;48.888;8.736;2023-04-28T13:37:23;0.82;;;0.70;;
34521;SDS011;25561;48.888;8.736;2023-04-28T13:40:24;3.17;;;0.68;;
34521;SDS011;25561;48.888;8.736;2023-04-28T13:43:26;0.70;;;0.50;;
34521;SDS011;25561;48.888;8.736;2023-04-28T13:46:28;1.85;;;0.70;;
34521;SDS011;25561;48.888;8.736;2023-04-28T13:49:30;1.30;;;0.63;;
34521;SDS011;25561;48.888;8.736;2023-04-28T13:52:32;0.73;;;0.50;;
34521;SDS011;25561;48.888;8.736;2023-04-28T13:55:33;4.05;;;0.63;;
34521;SDS011;25561;48.888;8.736;2023-04-28T13:58:35;0.88;;;0.50;;
34521;SDS011;25561;48.888;8.736;2023-04-28T14:01:37;1.85;;;0.73;;
34521;SDS011;25561;48.888;8.736;2023-04-28T14:04:39;1.20;;;0.70;;
34521;SDS011;25561;48.888;8.736;2023-04-28T14:07:41;2.22;;;0.70;;
34521;SDS011;25561;48.888;8.736;2023-04-28T14:10:43;2.75;;;0.55;;
34521;SDS011;25561;48.888;8.736;2023-04-28T14:13:45;1.52;;;0.82;;
34521;SDS011;25561;48.888;8.736;2023-04-28T14:16:47;0.70;;;0.60;;
34521;SDS011;25561;48.888;8.736;2023-04-28T14:19:49;3.63;;;1.00;;
34521;SDS011;25561;48.888;8.736;2023-04-28T14:22:50;0.68;;;0.60;;
34521;SDS011;25561;48.888;8.736;2023-04-28T14:25:52;1.48;;;0.60;;
34521;SDS011;25561;48.888;8.736;2023-04-28T14:28:58;1.42;;;0.60;;
34521;SDS011;25561;48.888;8.736;2023-04-28T14:32:00;6.28;;;0.75;;
34521;SDS011;25561;48.888;8.736;2023-04-28T14:35:02;4.97;;;0.73;;
34521;SDS011;25561;48.888;8.736;2023-04-28T14:38:06;0.98;;;0.68;;
34521;SDS011;25561;48.888;8.736;2023-04-28T14:41:07;2.40;;;0.55;;
34521;SDS011;25561;48.888;8.736;2023-04-28T14:44:09;0.85;;;0.60;;
34521;SDS011;25561;48.888;8.736;2023-04-28T14:47:11;2.28;;;0.63;;
34521;SDS011;25561;48.888;8.736;2023-04-28T14:50:13;0.60;;;0.60;;
34521;SDS011;25561;48.888;8.736;2023-04-28T14:53:15;0.75;;;0.47;;
34521;SDS011;25561;48.888;8.736;2023-04-28T14:56:17;5.95;;;2.85;;
34521;SDS011;25561;48.888;8.736;2023-04-28T14:59:20;1.90;;;0.50;;
34521;SDS011;25561;48.888;8.736;2023-04-28T15:02:23;1.30;;;1.10;;
34521;SDS011;25561;48.888;8.736;2023-04-28T15:05:29;6.00;;;0.63;;
34521;SDS011;25561;48.888;8.736;2023-04-28T15:08:32;1.55;;;0.50;;
34521;SDS011;25561;48.888;8.736;2023-04-28T15:11:33;0.50;;;0.50;;
34521;SDS011;25561;48.888;8.736;2023-04-28T15:14:35;0.63;;;0.40;;
34521;SDS011;25561;48.888;8.736;2023-04-28T15:17:37;0.38;;;0.38;;
34521;SDS011;25561;48.888;8.736;2023-04-28T15:20:39;0.35;;;0.30;;
34521;SDS011;25561;48.888;8.736;2023-04-28T15:23:41;0.38;;;0.38;;
34521;SDS011;25561;48.888;8.736;2023-04-28T15:26:42;0.40;;;0.40;;
34521;SDS011;25561;48.888;8.736;2023-04-28T15:29:44;1.85;;;0.40;;
34521;SDS011;25561;48.888;8.736;2023-04-28T15:32:47;4.55;;;0.60;;
34521;SDS011;25561;48.888;8.736;2023-04-28T15:35:49;0.88;;;0.60;;
34521;SDS011;25561;48.888;8.736;2023-04-28T15:38:51;0.30;;;0.30;;
34521;SDS011;25561;48.888;8.736;2023-04-28T15:41:53;0.52;;;0.43;;
34521;SDS011;25561;48.888;8.736;2023-04-28T15:44:56;0.57;;;0.57;;
34521;SDS011;25561;48.888;8.736;2023-04-28T15:47:57;0.70;;;0.50;;
34521;SDS011;25561;48.888;8.736;2023-04-28T15:50:59;0.57;;;0.55;;
34521;SDS011;25561;48.888;8.736;2023-04-28T15:54:01;0.98;;;0.70;;
34521;SDS011;25561;48.888;8.736;2023-04-28T15:57:03;1.58;;;0.90;;
34521;SDS011;25561;48.888;8.736;2023-04-28T16:00:06;3.28;;;0.70;;
